createdAt,value
2022-11-02T00:00:38.447Z,47.10
2022-11-02T00:01:38.533Z,43.86
2022-11-02T00:02:38.468Z,43.58
2022-11-02T00:03:38.444Z,49.51
2022-11-02T00:04:38.493Z,47.02
2022-11-02T00:05:38.391Z,43.78
2022-11-02T00:06:38.420Z,44.63
2022-11-02T00:07:38.411Z,46.21
2022-11-02T00:08:38.368Z,57.23
2022-11-02T00:09:38.412Z,46.59
2022-11-02T00:10:38.359Z,54.10
2022-11-02T00:11:38.369Z,44.99
2022-11-02T00:12:38.409Z,50.04
2022-11-02T00:13:39.001Z,43.95
2022-11-02T00:14:38.351Z,47.54
2022-11-02T00:15:38.324Z,46.23
2022-11-02T00:16:38.443Z,50.97
2022-11-02T00:17:38.302Z,58.39
2022-11-02T00:18:38.402Z,48.75
2022-11-02T00:19:38.301Z,45.48
2022-11-02T00:20:38.281Z,47.75
2022-11-02T00:21:38.378Z,55.03
2022-11-02T00:22:38.999Z,45.60
2022-11-02T00:23:38.270Z,43.94
2022-11-02T00:24:38.298Z,44.43
2022-11-02T00:25:38.281Z,47.18
2022-11-02T00:26:38.237Z,57.97
2022-11-02T00:27:38.266Z,59.44
2022-11-02T00:28:38.270Z,64.68
2022-11-02T00:29:38.245Z,45.02
2022-11-02T00:30:38.191Z,50.83
2022-11-02T00:31:39.185Z,52.92
2022-11-02T00:32:38.193Z,62.53
2022-11-02T00:33:38.243Z,44.68
2022-11-02T00:34:38.207Z,44.50
2022-11-02T00:35:38.182Z,49.99
2022-11-02T00:36:38.171Z,44.79
2022-11-02T00:37:38.181Z,51.06
2022-11-02T00:38:38.131Z,44.71
2022-11-02T00:39:38.127Z,55.68
2022-11-02T00:40:38.166Z,46.09
2022-11-02T00:41:38.116Z,54.40
2022-11-02T00:42:38.125Z,52.46
2022-11-02T00:43:38.105Z,47.81
2022-11-02T00:44:38.115Z,45.30
2022-11-02T00:45:38.094Z,50.29
2022-11-02T00:46:38.106Z,49.66
2022-11-02T00:47:38.076Z,51.43
2022-11-02T00:48:38.083Z,44.36
2022-11-02T00:49:38.094Z,49.59
2022-11-02T00:50:38.056Z,52.29
2022-11-02T00:51:38.068Z,45.41
2022-11-02T00:52:38.133Z,54.29
2022-11-02T00:53:38.042Z,55.24
2022-11-02T00:54:38.030Z,46.98
2022-11-02T00:55:38.034Z,45.37
2022-11-02T00:56:38.223Z,48.42
2022-11-02T00:57:37.990Z,52.39
2022-11-02T00:58:38.045Z,51.79
2022-11-02T00:59:37.986Z,57.76
2022-11-02T01:00:38.005Z,44.85
2022-11-02T01:01:38.131Z,51.12
2022-11-02T01:02:38.079Z,44.53
2022-11-02T01:03:37.992Z,45.48
2022-11-02T01:04:38.017Z,47.95
2022-11-02T01:05:37.994Z,47.16
2022-11-02T01:06:38.029Z,44.56
2022-11-02T01:07:37.935Z,45.92
2022-11-02T01:08:37.946Z,46.50
2022-11-02T01:09:37.910Z,44.30
2022-11-02T01:10:37.941Z,44.93
2022-11-02T01:11:37.900Z,45.64
2022-11-02T01:12:37.886Z,46.63
2022-11-02T01:13:37.910Z,52.30
2022-11-02T01:14:37.901Z,52.08
2022-11-02T01:15:37.893Z,51.20
2022-11-02T01:16:37.882Z,44.75
2022-11-02T01:17:37.869Z,44.68
2022-11-02T01:18:37.867Z,54.73
2022-11-02T01:19:37.881Z,45.05
2022-11-02T01:20:37.850Z,51.18
2022-11-02T01:21:37.836Z,44.41
2022-11-02T01:22:37.830Z,49.81
2022-11-02T01:23:37.815Z,49.24
2022-11-02T01:24:37.818Z,43.85
2022-11-02T01:25:37.817Z,43.96
2022-11-02T01:26:37.828Z,44.30
2022-11-02T01:27:37.783Z,51.62
2022-11-02T01:28:37.798Z,61.52
2022-11-02T01:29:37.765Z,51.01
2022-11-02T01:30:37.784Z,46.43
2022-11-02T01:31:37.747Z,52.39
2022-11-02T01:32:37.741Z,44.31
2022-11-02T01:33:38.509Z,49.26
2022-11-02T01:34:37.772Z,45.29
2022-11-02T01:35:37.744Z,51.82
2022-11-02T01:36:37.708Z,45.81
2022-11-02T01:37:37.700Z,52.32
2022-11-02T01:38:37.691Z,59.88
2022-11-02T01:39:37.687Z,45.48
2022-11-02T01:40:37.705Z,47.81
2022-11-02T01:41:37.677Z,47.11
2022-11-02T01:42:37.694Z,45.20
2022-11-02T01:43:37.657Z,45.12
2022-11-02T01:44:37.661Z,50.67
2022-11-02T02:03:22.310Z,50.14
2022-11-02T02:04:23.453Z,44.09
2022-11-02T02:05:24.416Z,52.04
2022-11-02T02:06:23.372Z,55.45
2022-11-02T02:07:23.376Z,45.56
2022-11-02T02:08:23.377Z,46.35
2022-11-02T02:09:23.404Z,49.20
2022-11-02T02:10:23.346Z,43.37
2022-11-02T02:11:23.364Z,43.90
2022-11-02T02:12:24.428Z,50.15
2022-11-02T02:13:23.319Z,45.24
2022-11-02T02:14:23.306Z,46.37
2022-11-02T02:15:55.252Z,55.19
2022-11-02T02:16:23.380Z,45.52
2022-11-02T02:17:23.850Z,43.76
2022-11-02T02:18:23.287Z,43.18
2022-11-02T02:19:23.293Z,44.81
2022-11-02T02:20:23.271Z,51.09
2022-11-02T02:21:24.756Z,43.76
2022-11-02T02:22:23.245Z,48.71
2022-11-02T02:23:23.288Z,43.36
2022-11-02T02:24:23.274Z,43.16
2022-11-02T02:25:24.257Z,43.11
2022-11-02T02:26:23.228Z,48.49
2022-11-02T02:27:23.210Z,45.12
2022-11-02T02:28:23.197Z,48.79
2022-11-02T02:29:23.200Z,48.71
2022-11-02T02:30:23.269Z,44.04
2022-11-02T02:31:23.203Z,49.49
2022-11-02T02:32:23.172Z,43.34
2022-11-02T02:33:23.316Z,48.16
2022-11-02T02:34:23.152Z,43.47
2022-11-02T02:35:23.188Z,44.62
2022-11-02T02:36:23.163Z,50.34
2022-11-02T02:37:23.136Z,46.39
2022-11-02T02:38:23.119Z,57.19
2022-11-02T02:39:23.124Z,51.44
2022-11-02T02:40:23.159Z,44.69
2022-11-02T02:41:23.151Z,44.08
2022-11-02T02:42:23.107Z,49.49
2022-11-02T02:43:23.115Z,44.31
2022-11-02T02:44:23.101Z,44.05
2022-11-02T02:45:23.085Z,42.95
2022-11-02T02:46:23.066Z,43.72
2022-11-02T02:47:23.096Z,44.97
2022-11-02T02:48:23.059Z,45.68
2022-11-02T02:49:23.113Z,51.74
2022-11-02T02:50:23.031Z,49.23
2022-11-02T02:51:23.094Z,50.56
2022-11-02T02:52:23.033Z,52.86
2022-11-02T02:53:23.047Z,44.28
2022-11-02T02:54:23.031Z,44.09
2022-11-02T02:55:22.983Z,53.46
2022-11-02T02:56:22.991Z,54.51
2022-11-02T02:57:23.118Z,47.38
2022-11-02T02:58:22.990Z,51.50
2022-11-02T02:59:23.927Z,45.77
2022-11-02T03:00:22.942Z,44.34
2022-11-02T03:01:23.093Z,42.90
2022-11-02T03:02:23.086Z,43.23
2022-11-02T03:03:22.920Z,43.22
2022-11-02T03:04:23.036Z,44.17
2022-11-02T03:05:23.065Z,49.34
2022-11-02T03:06:22.956Z,54.67
2022-11-02T03:07:22.919Z,45.48
2022-11-02T03:08:22.878Z,53.40
2022-11-02T03:09:22.979Z,44.92
2022-11-02T03:10:22.911Z,50.44
2022-11-02T03:11:23.909Z,57.34
2022-11-02T03:12:23.763Z,52.06
2022-11-02T03:13:22.863Z,45.32
2022-11-02T03:14:23.375Z,45.71
2022-11-02T03:15:22.865Z,47.95
2022-11-02T03:16:23.367Z,47.32
2022-11-02T03:17:22.851Z,47.76
2022-11-02T03:18:22.833Z,43.89
2022-11-02T03:19:22.849Z,43.71
2022-11-02T03:20:22.804Z,43.43
2022-11-02T03:21:22.824Z,43.16
2022-11-02T03:22:22.786Z,50.56
2022-11-02T03:23:22.777Z,50.14
2022-11-02T03:24:22.765Z,43.37
2022-11-02T03:25:22.777Z,44.77
2022-11-02T03:26:22.767Z,50.64
2022-11-02T03:27:22.884Z,43.71
2022-11-02T03:28:22.744Z,49.79
2022-11-02T03:29:22.744Z,49.55
2022-11-02T03:30:22.714Z,49.83
2022-11-02T03:31:22.725Z,45.19
2022-11-02T03:32:22.733Z,55.58
2022-11-02T03:33:22.766Z,44.70
2022-11-02T03:34:22.695Z,50.69
2022-11-02T03:35:22.670Z,52.38
2022-11-02T03:36:22.699Z,52.45
2022-11-02T03:37:22.746Z,52.10
2022-11-02T03:38:22.652Z,55.72
2022-11-02T03:39:22.710Z,50.32
2022-11-02T03:40:22.677Z,51.99
2022-11-02T03:41:22.659Z,50.24
2022-11-02T03:42:22.695Z,51.16
2022-11-02T03:43:23.375Z,53.18
2022-11-02T03:44:22.625Z,53.10
2022-11-02T03:45:22.620Z,53.49
2022-11-02T03:46:22.586Z,54.13
2022-11-02T03:47:22.603Z,51.31
2022-11-02T04:03:50.303Z,57.15
2022-11-02T04:04:51.464Z,51.91
2022-11-02T04:05:52.266Z,56.33
2022-11-02T04:06:51.659Z,58.46
2022-11-02T04:07:55.430Z,51.19
2022-11-02T04:08:52.459Z,66.07
2022-11-02T04:09:51.401Z,61.34
2022-11-02T04:10:52.270Z,48.28
2022-11-02T04:11:51.388Z,52.56
2022-11-02T04:12:51.372Z,62.79
2022-11-02T04:13:52.708Z,60.70
2022-11-02T04:14:51.364Z,58.14
2022-11-02T04:15:51.357Z,55.92
2022-11-02T04:16:51.319Z,51.79
2022-11-02T04:17:51.331Z,58.85
2022-11-02T04:18:51.343Z,58.48
2022-11-02T04:19:51.328Z,57.61
2022-11-02T04:20:51.298Z,53.33
2022-11-02T04:21:51.315Z,58.86
2022-11-02T04:22:51.320Z,62.84
2022-11-02T04:23:51.364Z,57.79
2022-11-02T04:24:51.295Z,62.03
2022-11-02T04:25:51.277Z,67.78
2022-11-02T04:26:51.252Z,57.06
2022-11-02T04:27:51.271Z,63.15
2022-11-02T04:28:51.239Z,60.76
2022-11-02T04:29:52.287Z,65.12
2022-11-02T04:30:51.366Z,65.83
2022-11-02T04:31:52.209Z,64.06
2022-11-02T04:32:51.241Z,66.02
2022-11-02T04:33:52.643Z,64.78
2022-11-02T04:34:51.198Z,65.76
2022-11-02T04:35:51.200Z,66.46
2022-11-02T04:36:51.813Z,62.91
2022-11-02T04:37:51.211Z,66.64
2022-11-02T04:38:51.316Z,64.59
2022-11-02T04:39:51.804Z,62.84
2022-11-02T04:40:51.194Z,59.17
2022-11-02T04:41:51.226Z,71.04
2022-11-02T04:42:51.123Z,67.69
2022-11-02T04:43:51.144Z,65.26
2022-11-02T04:44:51.127Z,63.59
2022-11-02T04:45:51.120Z,68.59
2022-11-02T04:46:51.132Z,64.78
2022-11-02T04:47:51.790Z,67.57
2022-11-02T04:48:51.102Z,65.87
2022-11-02T04:49:51.707Z,68.37
2022-11-02T04:50:51.073Z,65.74
2022-11-02T04:51:51.081Z,61.61
2022-11-02T04:52:51.081Z,70.65
2022-11-02T04:53:51.050Z,68.29
2022-11-02T04:54:51.110Z,62.79
2022-11-02T04:55:51.087Z,65.93
2022-11-02T04:56:51.052Z,64.10
2022-11-02T04:57:51.031Z,66.83
2022-11-02T04:58:51.065Z,69.50
2022-11-02T04:59:51.821Z,63.21
2022-11-02T05:00:50.993Z,67.12
2022-11-02T05:01:51.082Z,60.99
2022-11-02T05:02:51.080Z,70.22
2022-11-02T05:03:51.010Z,65.91
2022-11-02T05:04:50.973Z,69.56
2022-11-02T05:05:51.080Z,67.42
2022-11-02T05:06:50.947Z,65.17
2022-11-02T05:07:51.647Z,64.22
2022-11-02T05:08:50.943Z,67.44
2022-11-02T05:09:50.912Z,66.67
2022-11-02T05:10:50.918Z,72.49
2022-11-02T05:11:50.942Z,71.75
2022-11-02T05:12:50.916Z,72.46
2022-11-02T05:13:50.894Z,64.44
2022-11-02T05:14:50.899Z,73.21
2022-11-02T05:15:50.876Z,62.93
2022-11-02T05:16:51.791Z,67.82
2022-11-02T05:17:51.913Z,69.68
2022-11-02T05:18:50.851Z,67.84
2022-11-02T05:19:50.870Z,65.25
2022-11-02T05:20:50.991Z,64.63
2022-11-02T05:21:50.834Z,72.36
2022-11-02T05:22:50.822Z,69.84
2022-11-02T05:23:51.834Z,67.98
2022-11-02T05:24:50.807Z,71.91
2022-11-02T05:25:50.824Z,72.18
2022-11-02T05:26:53.813Z,71.93
2022-11-02T05:27:51.669Z,67.76
2022-11-02T05:28:50.856Z,70.24
2022-11-02T05:29:50.790Z,68.79
2022-11-02T05:30:50.801Z,66.61
2022-11-02T05:31:50.750Z,74.65
2022-11-02T05:32:50.764Z,71.31
2022-11-02T05:33:50.753Z,63.34
2022-11-02T05:34:50.731Z,70.36
2022-11-02T05:35:50.755Z,71.01
2022-11-02T05:36:50.717Z,63.38
2022-11-02T05:37:50.705Z,71.41
2022-11-02T05:38:50.739Z,72.64
2022-11-02T05:39:50.788Z,71.24
2022-11-02T05:40:50.673Z,64.32
2022-11-02T05:41:51.652Z,70.24
2022-11-02T05:42:50.666Z,71.16
2022-11-02T05:43:50.677Z,68.42
2022-11-02T05:44:51.303Z,74.05
2022-11-02T05:45:50.667Z,73.74
2022-11-02T05:46:50.674Z,72.19
2022-11-02T05:47:50.636Z,69.28
2022-11-02T05:48:50.676Z,61.37
2022-11-02T05:49:51.154Z,74.11
2022-11-02T05:50:50.632Z,68.56
2022-11-02T05:51:51.322Z,73.17
2022-11-02T05:52:50.603Z,72.20
2022-11-02T05:53:50.589Z,68.69
2022-11-02T05:54:51.311Z,66.32
2022-11-02T05:55:50.605Z,67.69
2022-11-02T05:56:50.585Z,72.81
2022-11-02T05:57:50.613Z,71.09
2022-11-02T05:59:50.553Z,69.71
2022-11-02T06:00:50.535Z,64.32
2022-11-02T06:01:50.639Z,73.35
2022-11-02T06:02:51.202Z,71.43
2022-11-02T06:03:53.532Z,70.34
2022-11-02T06:04:51.552Z,69.71
2022-11-02T06:05:50.562Z,69.33
2022-11-02T06:06:50.519Z,69.35
2022-11-02T06:07:50.474Z,70.58
2022-11-02T06:08:50.516Z,68.69
2022-11-02T06:09:50.484Z,72.43
2022-11-02T06:10:50.457Z,71.09
2022-11-02T06:11:50.464Z,70.48
2022-11-02T06:12:50.444Z,72.93
2022-11-02T06:13:50.470Z,73.22
2022-11-02T06:14:50.421Z,72.91
2022-11-02T06:15:50.445Z,70.24
2022-11-02T06:16:50.456Z,72.11
2022-11-02T06:17:51.177Z,64.39
2022-11-02T06:18:50.396Z,73.11
2022-11-02T06:19:50.393Z,75.15
2022-11-02T06:20:51.305Z,73.95
2022-11-02T06:21:51.342Z,73.69
2022-11-02T06:22:50.366Z,67.54
2022-11-02T06:23:50.384Z,73.58
2022-11-02T06:24:50.356Z,74.04
2022-11-02T06:25:50.356Z,70.28
2022-11-02T06:26:50.332Z,73.63
2022-11-02T06:27:50.358Z,71.67
2022-11-02T06:28:50.395Z,75.94
2022-11-02T06:29:50.303Z,72.30
2022-11-02T06:30:50.292Z,73.55
2022-11-02T06:31:50.339Z,72.19
2022-11-02T06:32:50.303Z,70.39
2022-11-02T06:33:50.292Z,74.20
2022-11-02T06:34:50.269Z,73.14
2022-11-02T06:35:50.252Z,72.55
2022-11-02T06:36:50.243Z,73.66
2022-11-02T06:37:50.243Z,74.68
2022-11-02T06:38:50.256Z,68.13
2022-11-02T06:39:50.237Z,71.25
2022-11-02T06:40:50.244Z,70.77
2022-11-02T06:41:50.240Z,70.49
2022-11-02T06:43:10.744Z,73.72
2022-11-02T06:43:52.843Z,65.01
2022-11-02T06:44:50.187Z,69.59
2022-11-02T06:45:50.202Z,73.18
2022-11-02T06:46:50.167Z,70.41
2022-11-02T06:47:50.165Z,68.75
2022-11-02T06:48:50.237Z,69.76
2022-11-02T06:49:50.188Z,73.96
2022-11-02T06:50:50.143Z,71.06
2022-11-02T06:51:50.161Z,68.14
2022-11-02T06:52:50.112Z,71.24
2022-11-02T06:53:50.181Z,72.77
2022-11-02T06:54:50.175Z,71.68
2022-11-02T06:55:50.132Z,70.25
2022-11-02T06:56:50.110Z,65.75
2022-11-02T06:57:50.109Z,68.31
2022-11-02T06:58:50.713Z,72.06
2022-11-02T06:59:53.821Z,70.40
2022-11-02T07:00:51.125Z,67.48
2022-11-02T07:01:50.172Z,68.86
2022-11-02T07:02:50.845Z,73.56
2022-11-02T07:03:50.066Z,66.21
2022-11-02T07:04:50.030Z,71.27
2022-11-02T07:05:50.047Z,68.22
2022-11-02T07:06:50.023Z,70.90
2022-11-02T07:07:50.003Z,71.67
2022-11-02T07:08:49.989Z,68.87
2022-11-02T07:09:50.010Z,67.57
2022-11-02T07:10:49.994Z,70.34
2022-11-02T07:11:50.820Z,71.19
2022-11-02T07:12:49.963Z,63.69
2022-11-02T07:13:49.971Z,64.33
2022-11-02T07:14:49.939Z,71.52
2022-11-02T07:15:50.962Z,72.19
2022-11-02T07:16:49.934Z,63.89
2022-11-02T07:17:49.943Z,67.94
2022-11-02T07:18:49.939Z,68.04
2022-11-02T07:19:49.909Z,65.36
2022-11-02T07:20:49.962Z,71.08
2022-11-02T07:21:49.901Z,69.58
2022-11-02T07:22:49.892Z,71.03
2022-11-02T07:23:49.879Z,67.20
2022-11-02T07:24:49.874Z,64.86
2022-11-02T07:25:49.905Z,65.57
2022-11-02T07:26:49.846Z,70.58
2022-11-02T07:27:49.839Z,70.07
2022-11-02T07:28:51.176Z,68.61
2022-11-02T07:29:49.869Z,70.03
2022-11-02T07:30:50.850Z,67.27
2022-11-02T07:31:49.845Z,71.72
2022-11-02T07:32:49.804Z,71.36
2022-11-02T07:33:49.834Z,65.87
2022-11-02T07:34:49.798Z,68.84
2022-11-02T07:35:49.785Z,68.84
2022-11-02T07:36:49.772Z,69.40
2022-11-02T07:37:49.788Z,64.96
2022-11-02T07:38:49.771Z,69.49
2022-11-02T07:39:49.747Z,66.76
2022-11-02T07:40:49.734Z,68.54
2022-11-02T07:41:52.046Z,67.97
2022-11-02T07:42:50.754Z,66.41
2022-11-02T07:43:49.759Z,66.74
2022-11-02T07:44:49.807Z,67.90
2022-11-02T07:45:49.708Z,68.56
2022-11-02T07:46:49.793Z,69.61
2022-11-02T07:47:49.697Z,61.83
2022-11-02T07:48:49.703Z,71.20
2022-11-02T07:49:49.668Z,65.97
2022-11-02T07:50:49.672Z,71.43
2022-11-02T07:51:49.652Z,70.37
2022-11-02T07:52:50.363Z,65.36
2022-11-02T07:53:49.685Z,68.86
2022-11-02T07:54:49.665Z,65.68
2022-11-02T07:55:49.630Z,70.09
2022-11-02T07:56:49.617Z,65.93
2022-11-02T07:57:49.622Z,70.71
2022-11-02T07:58:49.627Z,66.77
2022-11-02T07:59:49.627Z,65.44
2022-11-02T08:00:49.592Z,68.15
2022-11-02T08:01:49.721Z,66.99
2022-11-02T08:02:49.697Z,67.17
2022-11-02T08:03:49.619Z,69.34
2022-11-02T08:04:49.588Z,67.56
2022-11-02T08:05:49.592Z,66.26
2022-11-02T08:06:49.579Z,69.43
2022-11-02T08:07:50.328Z,68.53
2022-11-02T08:08:49.553Z,67.25
2022-11-02T08:09:49.604Z,68.15
2022-11-02T08:10:49.515Z,64.72
2022-11-02T08:11:49.537Z,64.54
2022-11-02T08:12:49.510Z,67.94
2022-11-02T08:13:49.549Z,65.73
2022-11-02T08:14:49.614Z,62.88
2022-11-02T08:15:49.499Z,71.27
2022-11-02T08:17:21.408Z,63.18
2022-11-02T08:17:49.463Z,67.07
2022-11-02T08:18:49.488Z,62.13
2022-11-02T08:19:49.476Z,70.99
2022-11-02T08:20:49.461Z,65.35
2022-11-02T08:21:49.429Z,63.89
2022-11-02T08:22:49.436Z,68.40
2022-11-02T08:23:49.426Z,66.95
2022-11-02T08:24:49.432Z,67.67
2022-11-02T08:25:49.426Z,69.00
2022-11-02T08:26:52.356Z,70.39
2022-11-02T08:27:50.383Z,66.33
2022-11-02T08:28:49.383Z,66.31
2022-11-02T08:29:49.401Z,66.70
2022-11-02T08:30:49.389Z,69.81
2022-11-02T08:31:49.390Z,69.19
2022-11-02T08:32:53.971Z,68.29
2022-11-02T08:33:51.355Z,66.78
2022-11-02T08:34:50.220Z,68.92
2022-11-02T08:35:49.356Z,68.22
2022-11-02T08:36:49.309Z,66.54
2022-11-02T08:37:49.307Z,66.97
2022-11-02T08:38:49.305Z,61.98
2022-11-02T08:39:49.288Z,68.46
2022-11-02T08:40:49.338Z,69.56
2022-11-02T08:41:49.271Z,69.05
2022-11-02T08:42:49.302Z,64.76
2022-11-02T08:43:49.359Z,70.01
2022-11-02T08:44:49.271Z,69.57
2022-11-02T08:46:51.357Z,64.75
2022-11-02T08:47:49.231Z,63.54
2022-11-02T08:48:49.266Z,69.26
2022-11-02T08:49:49.227Z,63.97
2022-11-02T08:50:49.202Z,64.54
2022-11-02T08:51:49.230Z,64.13
2022-11-02T08:52:49.226Z,67.34
2022-11-02T08:53:51.909Z,69.37
2022-11-02T08:54:50.184Z,66.72
2022-11-02T08:55:49.186Z,66.09
2022-11-02T08:56:49.178Z,63.58
2022-11-02T08:57:49.210Z,69.10
2022-11-02T08:58:49.149Z,67.47
2022-11-02T08:59:49.155Z,68.33
2022-11-02T09:00:49.897Z,62.49
2022-11-02T09:01:49.283Z,71.45
2022-11-02T09:02:49.279Z,68.90
2022-11-02T09:03:49.141Z,64.49
2022-11-02T09:04:49.125Z,68.27
2022-11-02T09:05:49.122Z,66.59
2022-11-02T09:06:49.121Z,65.73
2022-11-02T09:07:49.092Z,66.15
2022-11-02T09:08:49.087Z,68.64
2022-11-02T09:09:49.072Z,67.76
2022-11-02T09:10:49.059Z,64.87
2022-11-02T09:11:49.042Z,70.03
2022-11-02T09:12:49.073Z,64.53
2022-11-02T09:13:51.616Z,65.83
2022-11-02T09:14:51.039Z,63.90
2022-11-02T09:15:49.071Z,63.94
2022-11-02T09:16:49.027Z,70.27
2022-11-02T09:17:49.014Z,64.87
2022-11-02T09:18:49.002Z,63.56
2022-11-02T09:19:49.002Z,60.10
2022-11-02T09:20:48.978Z,61.92
2022-11-02T09:21:48.990Z,67.37
2022-11-02T09:22:48.969Z,67.51
2022-11-02T09:24:03.807Z,66.80
2022-11-02T09:24:48.974Z,68.04
2022-11-02T09:25:48.981Z,69.22
2022-11-02T09:26:48.948Z,70.69
2022-11-02T09:27:54.349Z,67.64
2022-11-02T09:28:50.911Z,65.00
2022-11-02T09:29:48.920Z,65.58
2022-11-02T09:30:48.940Z,58.95
2022-11-02T09:31:49.907Z,65.61
2022-11-02T09:32:48.881Z,70.33
2022-11-02T09:33:48.914Z,63.13
2022-11-02T09:34:48.895Z,62.33
2022-11-02T09:35:48.868Z,66.80
2022-11-02T09:36:48.906Z,60.92
2022-11-02T09:37:50.093Z,65.86
2022-11-02T09:38:48.866Z,69.71
2022-11-02T09:39:48.832Z,69.39
2022-11-02T09:40:48.853Z,67.49
2022-11-02T09:41:48.812Z,64.48
2022-11-02T09:42:48.821Z,64.75
2022-11-02T09:43:48.819Z,67.35
2022-11-02T09:44:48.807Z,68.45
2022-11-02T09:45:48.780Z,68.25
2022-11-02T09:46:53.859Z,72.83
2022-11-02T09:48:15.287Z,66.53
2022-11-02T09:48:50.799Z,66.29
2022-11-02T09:49:48.753Z,65.28
2022-11-02T09:50:48.760Z,64.12
2022-11-02T09:51:48.762Z,66.07
2022-11-02T09:52:48.745Z,68.90
2022-11-02T09:53:48.763Z,65.00
2022-11-02T09:54:48.736Z,65.88
2022-11-02T09:55:48.763Z,69.47
2022-11-02T09:56:48.706Z,63.99
2022-11-02T09:57:48.702Z,64.72
2022-11-02T09:58:48.676Z,65.28
2022-11-02T09:59:48.745Z,65.40
2022-11-02T10:00:48.659Z,66.06
2022-11-02T10:01:48.710Z,64.60
2022-11-02T10:02:48.683Z,61.47
2022-11-02T10:03:48.640Z,66.71
2022-11-02T10:04:48.665Z,64.79
2022-11-02T10:05:48.657Z,66.29
2022-11-02T10:06:51.328Z,63.55
2022-11-02T10:07:49.317Z,63.79
2022-11-02T10:08:51.303Z,65.32
2022-11-02T10:09:48.724Z,65.52
2022-11-02T10:10:50.357Z,69.70
2022-11-02T10:11:48.589Z,70.47
2022-11-02T10:12:48.578Z,66.20
2022-11-02T10:13:51.240Z,62.06
2022-11-02T10:14:49.588Z,63.47
2022-11-02T10:15:48.575Z,64.80
2022-11-02T10:16:48.548Z,67.10
2022-11-02T10:17:48.542Z,65.92
2022-11-02T10:18:48.534Z,61.28
2022-11-02T10:19:48.520Z,64.09
2022-11-02T10:20:48.547Z,64.52
2022-11-02T10:21:48.552Z,58.56
2022-11-02T10:22:48.525Z,59.76
2022-11-02T10:23:49.397Z,67.33
2022-11-02T10:24:48.472Z,68.03
2022-11-02T10:25:48.482Z,59.32
2022-11-02T10:26:48.471Z,63.96
2022-11-02T10:27:48.526Z,60.34
2022-11-02T10:28:48.489Z,64.97
2022-11-02T10:29:48.432Z,69.34
2022-11-02T10:30:48.464Z,64.58
2022-11-02T10:31:48.480Z,65.22
2022-11-02T10:32:48.432Z,59.44
2022-11-02T10:33:48.453Z,63.21
2022-11-02T10:34:58.667Z,59.30
2022-11-02T10:36:12.510Z,64.07
2022-11-02T10:36:50.399Z,65.76
2022-11-02T10:37:48.945Z,68.90
2022-11-02T10:38:48.405Z,62.84
2022-11-02T10:39:48.357Z,70.41
2022-11-02T10:40:48.385Z,70.00
2022-11-02T10:41:48.369Z,65.08
2022-11-02T10:42:48.397Z,63.79
2022-11-02T10:43:52.148Z,65.36
2022-11-02T10:44:49.341Z,61.83
2022-11-02T10:45:48.305Z,61.41
2022-11-02T10:46:48.323Z,63.57
2022-11-02T10:47:48.364Z,60.35
2022-11-02T10:48:48.313Z,70.11
2022-11-02T10:49:48.317Z,64.95
2022-11-02T10:50:48.308Z,67.72
2022-11-02T10:51:48.271Z,68.08
2022-11-02T10:52:48.274Z,66.66
2022-11-02T10:53:48.720Z,60.59
2022-11-02T10:54:48.268Z,63.16
2022-11-02T10:55:48.238Z,67.15
2022-11-02T10:56:48.234Z,66.07
2022-11-02T10:57:48.244Z,61.12
2022-11-02T10:58:48.776Z,56.91
2022-11-02T10:59:48.256Z,57.31
2022-11-02T11:00:49.296Z,70.25
2022-11-02T11:01:48.257Z,64.10
2022-11-02T11:02:48.181Z,64.06
2022-11-02T11:03:48.212Z,68.85
2022-11-02T11:04:48.805Z,62.79
2022-11-02T11:05:48.177Z,60.52
2022-11-02T11:06:48.769Z,68.43
2022-11-02T11:07:48.135Z,67.02
2022-11-02T11:08:48.186Z,71.01
2022-11-02T11:09:48.176Z,67.60
2022-11-02T11:10:48.768Z,59.47
2022-11-02T11:11:48.125Z,69.87
2022-11-02T11:12:48.787Z,68.14
2022-11-02T11:15:50.080Z,65.45
2022-11-02T11:16:48.266Z,65.21
2022-11-02T11:19:50.075Z,64.54
2022-11-02T11:20:48.085Z,66.43
2022-11-02T11:21:48.039Z,66.71
2022-11-02T11:22:48.052Z,67.79
2022-11-02T11:23:48.042Z,66.45
2022-11-02T11:24:48.063Z,64.05
2022-11-02T11:25:49.016Z,65.63
2022-11-02T11:26:48.019Z,62.60
2022-11-02T11:27:48.022Z,68.62
2022-11-02T11:28:48.002Z,64.64
2022-11-02T11:29:47.990Z,67.50
2022-11-02T11:30:59.848Z,68.13
2022-11-02T11:31:50.462Z,66.15
2022-11-02T11:32:47.960Z,68.56
2022-11-02T11:33:48.070Z,68.50
2022-11-02T11:34:47.938Z,66.71
2022-11-02T11:35:47.974Z,60.30
2022-11-02T11:36:47.943Z,65.77
2022-11-02T11:37:47.922Z,61.33
2022-11-02T11:38:47.921Z,64.46
2022-11-02T11:39:52.441Z,65.99
2022-11-02T11:40:49.891Z,67.33
2022-11-02T11:41:47.917Z,66.54
2022-11-02T11:42:47.922Z,66.79
2022-11-02T11:43:47.891Z,68.90
2022-11-02T11:44:47.903Z,62.19
2022-11-02T11:45:47.896Z,66.47
2022-11-02T11:46:47.861Z,66.48
2022-11-02T11:47:47.871Z,65.80
2022-11-02T11:48:47.846Z,66.12
2022-11-02T11:50:09.539Z,68.55
2022-11-02T11:50:49.840Z,64.03
2022-11-02T11:51:47.828Z,65.15
2022-11-02T11:52:47.817Z,65.76
2022-11-02T11:53:47.797Z,61.31
2022-11-02T11:54:47.812Z,66.08
2022-11-02T11:55:47.781Z,66.79
2022-11-02T11:56:47.779Z,64.71
2022-11-02T11:57:47.787Z,62.65
2022-11-02T11:58:49.659Z,67.50
2022-11-02T11:59:48.848Z,64.16
2022-11-02T12:00:47.760Z,68.66
2022-11-02T12:01:47.833Z,64.47
2022-11-02T12:02:47.956Z,68.23
2022-11-02T12:03:47.730Z,70.02
2022-11-02T12:04:47.734Z,65.37
2022-11-02T12:05:47.724Z,63.85
2022-11-02T12:06:47.703Z,67.79
2022-11-02T12:07:52.051Z,63.41
2022-11-02T12:08:48.746Z,69.09
2022-11-02T12:09:47.726Z,69.66
2022-11-02T12:10:47.683Z,65.43
2022-11-02T12:11:47.670Z,69.68
2022-11-02T12:12:47.659Z,71.68
2022-11-02T12:13:47.635Z,67.19
2022-11-02T12:14:47.678Z,71.93
2022-11-02T12:15:48.397Z,66.83
2022-11-02T12:16:47.624Z,63.72
2022-11-02T12:17:47.608Z,66.40
2022-11-02T12:18:47.664Z,61.08
2022-11-02T12:19:47.595Z,67.06
2022-11-02T12:20:47.608Z,61.60
2022-11-02T12:21:47.635Z,61.69
2022-11-02T12:22:47.624Z,69.70
2022-11-02T12:23:47.568Z,71.63
2022-11-02T12:24:47.570Z,68.83
2022-11-02T12:25:47.575Z,66.99
2022-11-02T12:26:47.576Z,66.83
2022-11-02T12:27:47.563Z,69.38
2022-11-02T12:28:47.548Z,65.37
2022-11-02T12:29:47.514Z,68.29
2022-11-02T12:30:47.526Z,65.41
2022-11-02T12:31:48.457Z,65.54
2022-11-02T12:32:47.507Z,64.47
2022-11-02T12:33:48.293Z,66.36
2022-11-02T12:34:57.710Z,67.35
2022-11-02T12:35:48.497Z,67.23
2022-11-02T12:37:18.712Z,71.02
2022-11-02T12:37:49.482Z,69.83
2022-11-02T12:38:47.477Z,70.21
2022-11-02T12:39:47.473Z,67.62
2022-11-02T12:40:47.456Z,60.44
2022-11-02T12:41:48.296Z,70.22
2022-11-02T12:42:47.424Z,67.92
2022-11-02T12:43:47.448Z,68.03
2022-11-02T12:44:47.428Z,67.55
2022-11-02T12:45:47.437Z,67.11
2022-11-02T12:46:49.081Z,59.40
2022-11-02T12:47:48.399Z,68.93
2022-11-02T12:48:47.430Z,65.46
2022-11-02T12:49:47.375Z,65.06
2022-11-02T12:50:47.400Z,65.14
2022-11-02T12:51:47.374Z,64.74
2022-11-02T12:52:47.378Z,69.83
2022-11-02T12:53:47.335Z,62.99
2022-11-02T12:54:47.336Z,66.98
2022-11-02T12:55:47.346Z,68.65
2022-11-02T12:56:47.323Z,60.77
2022-11-02T12:57:47.316Z,69.31
2022-11-02T12:58:47.303Z,68.40
2022-11-02T12:59:47.335Z,67.69
2022-11-02T13:03:24.685Z,64.14
2022-11-02T13:04:28.044Z,68.15
2022-11-02T13:05:26.613Z,65.52
2022-11-02T13:06:24.578Z,68.71
2022-11-02T13:07:24.579Z,67.53
2022-11-02T13:08:24.588Z,65.96
2022-11-02T13:09:24.560Z,71.26
2022-11-02T13:10:24.588Z,65.44
2022-11-02T13:11:24.543Z,69.88
2022-11-02T13:12:24.579Z,68.47
2022-11-02T13:13:24.535Z,70.19
2022-11-02T13:14:24.514Z,69.69
2022-11-02T13:15:24.507Z,64.25
2022-11-02T13:16:24.530Z,64.92
2022-11-02T13:17:24.509Z,69.50
2022-11-02T13:18:24.510Z,66.16
2022-11-02T13:19:24.494Z,63.11
2022-11-02T13:20:24.495Z,66.48
2022-11-02T13:21:24.495Z,64.68
2022-11-02T13:22:24.512Z,68.89
2022-11-02T13:23:24.543Z,65.63
2022-11-02T13:24:27.847Z,69.28
2022-11-02T13:25:25.468Z,66.53
2022-11-02T13:26:24.453Z,66.01
2022-11-02T13:27:35.953Z,65.66
2022-11-02T13:28:26.425Z,69.92
2022-11-02T13:29:24.398Z,67.36
2022-11-02T13:30:24.445Z,68.20
2022-11-02T13:31:24.422Z,69.73
2022-11-02T13:32:26.344Z,68.00
2022-11-02T13:33:25.390Z,67.42
2022-11-02T13:34:24.357Z,64.35